Time;durP1;ratioP1;P1;durP2;ratioP2;P2;SDS_P1;SDS_P2;PMS_P1;PMS_P2;Temp;Humidity;BMP_temperature;BMP_pressure;BME280_temperature;BME280_humidity;BME280_pressure;Samples;Min_cycle;Max_cycle;Signal;HPM_P1;HPM_P2
2023/04/15 00:01:36;;;;;;;6.80;3.60;;;;;;;3.11;100.00;99625.94;4987681;28;20199;-70
2023/04/15 00:04:03;;;;;;;6.07;3.33;;;;;;;2.95;100.00;99618.47;4984451;28;20205;-70
2023/04/15 00:06:30;;;;;;;5.63;3.30;;;;;;;2.90;100.00;99625.28;4990177;28;20255;-69
2023/04/15 00:08:56;;;;;;;6.47;3.63;;;;;;;2.86;100.00;99626.94;4988248;28;20256;-70
2023/04/15 00:11:23;;;;;;;6.57;3.57;;;;;;;2.83;100.00;99616.38;4989535;28;20288;-69
2023/04/15 00:13:50;;;;;;;6.57;3.30;;;;;;;2.86;100.00;99626.94;4989305;28;20287;-69
2023/04/15 00:16:16;;;;;;;6.77;3.67;;;;;;;2.88;100.00;99619.13;4989958;28;20232;-69
2023/04/15 00:18:43;;;;;;;7.00;3.57;;;;;;;2.77;100.00;99619.66;4985205;28;20200;-69
2023/04/15 00:21:09;;;;;;;6.70;3.10;;;;;;;2.94;100.00;99624.56;4986504;28;20197;-69
2023/04/15 00:23:35;;;;;;;7.27;3.80;;;;;;;2.74;100.00;99619.56;4990299;28;20581;-70
2023/04/15 00:26:02;;;;;;;6.63;3.17;;;;;;;2.62;100.00;99615.69;4990104;28;20225;-69
2023/04/15 00:28:29;;;;;;;5.93;3.27;;;;;;;2.52;100.00;99611.88;4987816;28;20487;-69
2023/04/15 00:30:56;;;;;;;7.10;3.40;;;;;;;2.45;100.00;99613.41;4984541;28;20219;-69
2023/04/15 00:33:22;;;;;;;6.80;3.23;;;;;;;2.46;100.00;99617.81;4969977;28;20224;-70
2023/04/15 00:35:49;;;;;;;4.80;3.10;;;;;;;2.41;100.00;99611.53;4989687;28;20630;-70
2023/04/15 00:38:16;;;;;;;5.63;3.37;;;;;;;2.43;100.00;99616.81;4978552;28;20674;-69
2023/04/15 00:40:43;;;;;;;6.97;2.77;;;;;;;2.43;100.00;99617.69;4987596;28;20201;-69
2023/04/15 00:43:09;;;;;;;6.50;3.50;;;;;;;2.40;100.00;99614.06;4985028;28;20197;-70
2023/04/15 00:45:36;;;;;;;9.33;3.73;;;;;;;2.35;100.00;99603.47;4970167;28;20243;-69
2023/04/15 00:48:03;;;;;;;7.57;3.50;;;;;;;2.38;100.00;99607.91;4989178;28;20260;-70
2023/04/15 00:50:30;;;;;;;7.87;4.00;;;;;;;2.40;100.00;99607.16;4989398;28;20260;-70
2023/04/15 00:52:56;;;;;;;5.43;3.50;;;;;;;2.44;100.00;99610.75;4988035;28;20261;-69
2023/04/15 00:55:22;;;;;;;7.77;3.73;;;;;;;2.55;100.00;99603.25;4981758;28;20260;-69
2023/04/15 00:57:49;;;;;;;6.20;3.27;;;;;;;2.80;100.00;99596.25;4987323;28;20206;-70
2023/04/15 01:00:15;;;;;;;8.17;3.77;;;;;;;2.75;100.00;99602.16;4987874;28;20202;-69
2023/04/15 01:02:42;;;;;;;6.57;3.23;;;;;;;2.68;100.00;99592.34;4989619;28;20291;-70
2023/04/15 01:05:09;;;;;;;6.47;3.63;;;;;;;2.76;100.00;99606.53;4986278;28;20218;-69
2023/04/15 01:07:35;;;;;;;6.23;3.80;;;;;;;2.72;100.00;99604.66;4988016;28;20205;-69
2023/04/15 01:10:03;;;;;;;7.50;3.77;;;;;;;2.55;100.00;99598.91;4988752;28;20251;-69
2023/04/15 01:12:31;;;;;;;6.87;4.10;;;;;;;2.42;100.00;99601.97;4982249;28;20195;-70
2023/04/15 01:14:58;;;;;;;5.67;3.80;;;;;;;2.32;100.00;99599.88;4972508;28;20589;-69
2023/04/15 01:17:25;;;;;;;6.87;3.70;;;;;;;2.24;100.00;99596.13;4987248;28;20300;-70
2023/04/15 01:19:51;;;;;;;6.07;3.93;;;;;;;2.14;100.00;99594.94;4987901;28;20214;-69
2023/04/15 01:22:18;;;;;;;6.10;3.50;;;;;;;2.08;100.00;99599.94;4986974;28;20253;-69
2023/04/15 01:24:54;;;;;;;6.67;3.40;;;;;;;2.05;100.00;99597.25;4988180;28;20217;-70
2023/04/15 01:27:21;;;;;;;6.40;3.40;;;;;;;1.95;100.00;99595.13;4981402;28;20238;-69
2023/04/15 01:29:47;;;;;;;8.20;4.23;;;;;;;1.97;100.00;99603.91;4986130;28;20201;-70
2023/04/15 01:32:14;;;;;;;5.40;3.60;;;;;;;2.03;100.00;99606.75;4987520;28;20197;-68
2023/04/15 01:34:41;;;;;;;6.07;3.33;;;;;;;2.11;100.00;99607.88;4983420;28;20307;-69
2023/04/15 01:37:07;;;;;;;8.53;3.80;;;;;;;2.23;100.00;99602.19;4984545;28;20229;-69
2023/04/15 01:39:34;;;;;;;6.30;3.53;;;;;;;2.21;100.00;99599.53;4987563;28;20202;-69
2023/04/15 01:42:00;;;;;;;6.30;3.40;;;;;;;2.14;100.00;99605.38;4989138;28;20229;-70
2023/04/15 01:44:26;;;;;;;4.87;3.37;;;;;;;2.07;100.00;99606.00;4980898;28;20215;-69
2023/04/15 01:46:53;;;;;;;7.53;3.50;;;;;;;2.06;100.00;99604.25;4985053;28;20210;-70
2023/04/15 01:49:19;;;;;;;6.87;3.20;;;;;;;2.04;100.00;99605.91;4986307;28;20204;-69
2023/04/15 01:51:46;;;;;;;6.30;3.10;;;;;;;2.06;100.00;99614.69;4986108;28;20255;-69
2023/04/15 01:54:12;;;;;;;6.50;2.80;;;;;;;2.19;100.00;99606.41;4983517;28;20602;-69
2023/04/15 01:56:38;;;;;;;6.33;3.33;;;;;;;2.19;100.00;99614.25;4966965;28;20234;-69
2023/04/15 01:59:05;;;;;;;4.53;2.63;;;;;;;2.09;100.00;99615.69;4983480;28;20223;-70
2023/04/15 02:01:31;;;;;;;5.33;2.80;;;;;;;2.01;100.00;99609.31;4979776;28;20263;-70
2023/04/15 02:03:58;;;;;;;4.43;2.80;;;;;;;1.93;100.00;99607.25;4989126;28;20193;-69
2023/04/15 02:06:24;;;;;;;6.77;3.13;;;;;;;1.94;100.00;99609.91;4989728;28;20217;-69
2023/04/15 02:08:50;;;;;;;4.50;3.00;;;;;;;1.85;100.00;99600.03;4985091;28;20238;-69
2023/04/15 02:11:17;;;;;;;6.70;2.73;;;;;;;1.87;100.00;99608.81;4985224;28;20232;-69
2023/04/15 02:13:43;;;;;;;5.13;2.90;;;;;;;1.83;100.00;99606.03;4986266;28;20223;-69
2023/04/15 02:16:19;;;;;;;4.67;2.77;;;;;;;1.86;100.00;99606.13;4982695;28;20233;-69
2023/04/15 02:18:46;;;;;;;4.10;2.40;;;;;;;1.87;100.00;99608.81;4987177;28;20244;-69
2023/04/15 02:21:13;;;;;;;5.27;3.03;;;;;;;1.93;100.00;99607.25;4985929;28;20807;-69
2023/04/15 02:23:39;;;;;;;5.03;2.80;;;;;;;1.92;100.00;99605.47;4986106;28;20255;-69
2023/04/15 02:26:06;;;;;;;5.20;2.87;;;;;;;1.94;100.00;99603.78;4985709;28;20303;-68
2023/04/15 02:28:33;;;;;;;5.67;4.23;;;;;;;2.00;100.00;99606.59;4987878;28;20689;-69
2023/04/15 02:31:01;;;;;;;5.37;3.13;;;;;;;2.16;100.00;99608.94;4986502;28;20205;-69
2023/04/15 02:33:27;;;;;;;11.27;3.77;;;;;;;2.16;100.00;99604.59;4988189;28;20213;-69
2023/04/15 02:35:53;;;;;;;6.50;2.97;;;;;;;2.17;100.00;99608.97;4984388;28;20280;-69
2023/04/15 02:38:20;;;;;;;6.73;3.27;;;;;;;2.13;100.00;99616.66;4974534;28;20201;-69
2023/04/15 02:40:48;;;;;;;5.87;3.63;;;;;;;2.09;100.00;99609.56;4990204;28;20548;-69
2023/04/15 02:43:16;;;;;;;4.77;3.20;;;;;;;2.04;100.00;99619.84;4989617;28;20207;-68
2023/04/15 02:45:42;;;;;;;6.57;3.40;;;;;;;1.94;100.00;99614.22;4992698;28;20835;-69
2023/04/15 02:48:09;;;;;;;7.40;3.57;;;;;;;1.83;100.00;99613.88;4990625;28;20239;-70
2023/04/15 02:50:38;;;;;;;6.50;3.53;;;;;;;1.75;100.00;99613.59;4988110;28;20199;-69
2023/04/15 02:53:05;;;;;;;6.90;3.10;;;;;;;1.86;100.00;99616.59;4986348;28;20221;-69
2023/04/15 02:55:32;;;;;;;4.73;3.50;;;;;;;1.79;100.00;99615.47;4968065;28;20275;-69
2023/04/15 02:57:59;;;;;;;5.10;3.43;;;;;;;1.78;100.00;99612.81;4968623;28;20197;-69
2023/04/15 03:00:27;;;;;;;5.90;3.13;;;;;;;1.76;100.00;99614.47;4986460;28;20255;-69
2023/04/15 03:02:58;;;;;;;7.50;3.70;;;;;;;1.83;100.00;99617.38;4985799;28;20578;-70
2023/04/15 03:05:25;;;;;;;5.93;3.70;;;;;;;1.88;100.00;99622.75;4986575;28;20224;-69
2023/04/15 03:07:51;;;;;;;8.27;4.00;;;;;;;1.97;100.00;99620.44;4988954;28;20200;-69
2023/04/15 03:10:18;;;;;;;8.27;4.70;;;;;;;2.00;100.00;99614.44;4991634;28;20205;-69
2023/04/15 03:12:45;;;;;;;5.20;3.83;;;;;;;2.03;100.00;99620.69;4990163;28;20468;-70
2023/04/15 03:15:11;;;;;;;7.87;4.40;;;;;;;1.87;100.00;99629.69;4991537;28;20259;-70
2023/04/15 03:17:38;;;;;;;7.47;3.77;;;;;;;1.82;100.00;99620.81;4987276;28;20260;-69
2023/04/15 03:20:05;;;;;;;4.73;3.70;;;;;;;1.93;100.00;99625.50;4987200;28;20284;-68
2023/04/15 03:22:32;;;;;;;6.37;3.97;;;;;;;2.00;100.00;99619.66;4989666;28;20221;-69
2023/04/15 03:24:58;;;;;;;7.83;3.80;;;;;;;1.93;100.00;99622.91;4991550;28;20213;-69
2023/04/15 03:27:25;;;;;;;8.10;4.47;;;;;;;1.87;100.00;99628.78;4987142;28;20201;-68
2023/04/15 03:29:51;;;;;;;8.63;4.70;;;;;;;1.81;100.00;99629.47;4986076;28;20232;-69
2023/04/15 03:32:18;;;;;;;6.97;4.40;;;;;;;1.76;100.00;99628.44;4972802;28;20200;-69
2023/04/15 03:34:44;;;;;;;10.17;5.13;;;;;;;1.79;100.00;99620.69;4984451;28;20345;-68
2023/04/15 03:37:10;;;;;;;7.10;4.53;;;;;;;1.87;100.00;99615.75;4987216;28;20201;-69
2023/04/15 03:39:37;;;;;;;10.90;5.20;;;;;;;1.78;100.00;99626.75;4989241;28;20207;-69
2023/04/15 03:42:04;;;;;;;10.50;4.73;;;;;;;1.73;100.00;99624.81;4989273;28;20205;-69
2023/04/15 03:44:31;;;;;;;7.00;4.33;;;;;;;1.70;100.00;99624.72;4982502;28;20244;-69
2023/04/15 03:46:58;;;;;;;6.67;4.33;;;;;;;1.70;100.00;99622.09;4973773;28;20208;-69
2023/04/15 03:49:24;;;;;;;7.10;4.50;;;;;;;1.85;100.00;99631.34;4989487;28;20204;-69
2023/04/15 03:51:51;;;;;;;9.03;4.03;;;;;;;1.71;100.00;99624.75;4990201;28;20669;-69
2023/04/15 03:54:17;;;;;;;8.27;4.90;;;;;;;1.69;100.00;99618.59;4984083;28;20219;-68
2023/04/15 03:56:43;;;;;;;9.97;4.80;;;;;;;1.61;100.00;99627.00;5026867;22;20318;-75
2023/04/15 03:59:10;;;;;;;7.83;4.87;;;;;;;1.49;100.00;99615.25;5007862;28;20695;-74
2023/04/15 04:01:36;;;;;;;9.27;5.07;;;;;;;1.40;100.00;99625.34;5006390;28;20254;-75
2023/04/15 04:04:03;;;;;;;8.70;4.77;;;;;;;1.32;100.00;99620.69;5006555;28;20262;-75
2023/04/15 04:06:29;;;;;;;8.63;4.90;;;;;;;1.27;100.00;99633.56;5004161;28;20270;-75
2023/04/15 04:08:56;;;;;;;8.83;4.87;;;;;;;1.22;100.00;99627.28;5009561;28;20243;-75
2023/04/15 04:11:22;;;;;;;8.20;4.50;;;;;;;1.14;100.00;99616.53;4988444;28;20212;-75
2023/04/15 04:13:49;;;;;;;12.03;4.70;;;;;;;1.14;100.00;99621.75;5006254;28;20289;-75
2023/04/15 04:16:16;;;;;;;8.07;4.03;;;;;;;1.09;100.00;99628.50;5009764;28;20224;-75
2023/04/15 04:18:42;;;;;;;7.73;4.10;;;;;;;1.09;100.00;99625.91;5003021;28;20197;-75
2023/04/15 04:21:08;;;;;;;6.13;3.67;;;;;;;1.14;100.00;99620.88;5005802;28;20284;-75
2023/04/15 04:23:35;;;;;;;7.70;4.13;;;;;;;1.32;100.00;99615.47;5003021;28;20196;-75
2023/04/15 04:26:01;;;;;;;9.47;4.10;;;;;;;1.33;100.00;99617.25;5007007;28;20235;-75
2023/04/15 04:28:28;;;;;;;12.17;4.57;;;;;;;1.60;100.00;99612.13;4997848;28;20200;-74
2023/04/15 04:30:55;;;;;;;8.90;4.43;;;;;;;1.61;100.00;99611.34;4993360;28;20201;-75
2023/04/15 04:33:21;;;;;;;8.43;4.47;;;;;;;1.53;100.00;99608.41;5007793;28;20243;-74
2023/04/15 04:35:47;;;;;;;6.73;4.40;;;;;;;1.43;100.00;99614.16;4990815;28;20788;-75
2023/04/15 04:38:14;;;;;;;8.37;4.53;;;;;;;1.46;100.00;99614.25;5009112;28;20244;-74
2023/04/15 04:40:40;;;;;;;6.93;3.93;;;;;;;1.45;100.00;99615.97;5008079;28;20228;-75
2023/04/15 04:43:07;;;;;;;7.80;4.57;;;;;;;1.44;100.00;99613.31;5011790;28;20200;-74
2023/04/15 04:45:33;;;;;;;6.27;3.90;;;;;;;1.50;100.00;99616.13;4990604;28;20215;-75
2023/04/15 04:48:00;;;;;;;7.67;4.03;;;;;;;1.64;100.00;99627.09;5006711;28;20604;-75
2023/04/15 04:50:26;;;;;;;8.67;3.50;;;;;;;1.72;100.00;99621.31;5010744;28;20294;-75
2023/04/15 04:52:52;;;;;;;7.23;3.50;;;;;;;1.74;100.00;99614.44;5013772;28;20672;-75
2023/04/15 04:55:19;;;;;;;6.73;3.43;;;;;;;1.71;100.00;99618.66;4991473;28;20278;-74
2023/04/15 04:57:46;;;;;;;8.27;3.90;;;;;;;1.70;100.00;99616.88;5005960;28;20200;-75
2023/04/15 05:00:12;;;;;;;7.17;3.73;;;;;;;1.78;100.00;99620.66;5007873;28;20558;-75
2023/04/15 05:02:41;;;;;;;7.70;3.80;;;;;;;1.87;100.00;99623.56;5004783;28;20210;-75
2023/04/15 05:05:08;;;;;;;6.03;3.57;;;;;;;1.85;100.00;99626.13;5008609;28;20219;-75
2023/04/15 05:07:35;;;;;;;9.67;3.93;;;;;;;1.89;100.00;99628.00;5003665;28;20748;-75
2023/04/15 05:10:01;;;;;;;9.93;3.67;;;;;;;2.07;100.00;99626.91;5005253;28;20256;-74
2023/04/15 05:12:27;;;;;;;8.67;3.70;;;;;;;2.18;100.00;99628.16;4995012;28;20239;-75
2023/04/15 05:14:54;;;;;;;7.67;4.13;;;;;;;2.24;100.00;99628.34;5007185;28;20596;-74
2023/04/15 05:17:20;;;;;;;9.10;4.40;;;;;;;2.34;100.00;99640.00;5008199;28;20204;-75
2023/04/15 05:19:47;;;;;;;7.30;4.43;;;;;;;2.27;100.00;99635.41;5003632;28;20211;-75
2023/04/15 05:22:13;;;;;;;6.73;4.03;;;;;;;2.21;100.00;99638.69;5011617;28;20277;-75
2023/04/15 05:24:40;;;;;;;5.77;3.80;;;;;;;2.14;100.00;99645.44;5010204;28;20196;-75
2023/04/15 05:27:07;;;;;;;6.47;3.73;;;;;;;2.11;100.00;99647.06;5008279;28;20231;-75
2023/04/15 05:29:33;;;;;;;6.93;3.50;;;;;;;2.29;100.00;99644.19;5006764;28;20279;-75
2023/04/15 05:32:00;;;;;;;8.07;4.03;;;;;;;2.49;100.00;99646.66;5004587;28;20200;-74
2023/04/15 05:34:27;;;;;;;8.27;3.80;;;;;;;2.54;100.00;99651.13;5011408;28;20326;-76
2023/04/15 05:36:53;;;;;;;6.23;3.77;;;;;;;2.66;100.00;99651.53;4991735;28;20639;-74
2023/04/15 05:39:20;;;;;;;7.60;4.33;;;;;;;2.65;100.00;99658.47;4993683;28;20204;-74
2023/04/15 05:41:46;;;;;;;8.90;4.10;;;;;;;2.75;100.00;99663.16;5006130;28;20199;-75
2023/04/15 05:44:13;;;;;;;7.23;4.30;;;;;;;2.78;100.00;99657.16;5007008;28;20207;-75
2023/04/15 05:46:39;;;;;;;6.97;4.20;;;;;;;2.90;100.00;99657.56;5009938;28;20247;-75
2023/04/15 05:49:06;;;;;;;6.70;3.87;;;;;;;2.88;100.00;99660.97;5011142;28;20251;-75
2023/04/15 05:51:32;;;;;;;6.47;3.83;;;;;;;2.95;100.00;99663.81;5004003;28;20224;-74
2023/04/15 05:54:00;;;;;;;6.57;3.80;;;;;;;3.06;100.00;99672.88;5007726;28;20204;-75
2023/04/15 05:56:26;;;;;;;6.73;3.80;;;;;;;3.17;100.00;99673.22;4987990;28;20524;-75
2023/04/15 05:58:52;;;;;;;7.57;4.13;;;;;;;3.26;100.00;99673.53;5007868;28;20235;-75
2023/04/15 06:01:19;;;;;;;5.47;3.73;;;;;;;3.34;100.00;99666.78;5006224;28;20204;-75
2023/04/15 06:03:45;;;;;;;6.20;3.80;;;;;;;3.36;100.00;99666.84;5010022;28;20200;-76
2023/04/15 06:06:13;;;;;;;7.87;3.67;;;;;;;3.47;100.00;99662.81;5009453;28;20716;-74
2023/04/15 06:08:39;;;;;;;6.63;3.70;;;;;;;3.54;100.00;99662.13;5005775;28;20200;-75
2023/04/15 06:11:06;;;;;;;6.63;3.80;;;;;;;3.62;100.00;99658.03;4990576;28;20196;-75
2023/04/15 06:13:33;;;;;;;5.90;3.53;;;;;;;3.69;100.00;99667.84;5000349;28;20251;-75
2023/04/15 06:16:00;;;;;;;6.47;3.13;;;;;;;3.82;100.00;99662.94;5004184;28;20572;-75
2023/04/15 06:18:26;;;;;;;5.47;3.53;;;;;;;3.90;100.00;99664.94;4989033;28;20200;-74
2023/04/15 06:20:52;;;;;;;6.37;3.13;;;;;;;4.04;100.00;99665.34;5006186;28;20200;-75
2023/04/15 06:23:19;;;;;;;4.90;3.40;;;;;;;4.16;100.00;99673.53;4993005;28;20211;-74
2023/04/15 06:25:45;;;;;;;5.20;3.23;;;;;;;4.14;100.00;99669.09;4998571;28;20251;-75
2023/04/15 06:28:12;;;;;;;4.77;3.47;;;;;;;4.29;100.00;99666.88;5001354;28;20196;-75
2023/04/15 06:30:38;;;;;;;5.67;2.97;;;;;;;4.39;100.00;99664.53;5010281;28;20199;-75
2023/04/15 06:33:05;;;;;;;8.13;3.23;;;;;;;4.60;100.00;99674.69;5005773;28;20195;-75
2023/04/15 06:35:31;;;;;;;5.57;3.30;;;;;;;4.78;100.00;99683.88;5005765;28;20682;-75
2023/04/15 06:37:58;;;;;;;7.33;3.30;;;;;;;5.05;100.00;99679.31;5009231;28;20656;-75
2023/04/15 06:40:24;;;;;;;7.20;3.40;;;;;;;5.27;100.00;99676.34;5005500;28;20203;-74
2023/04/15 06:42:50;;;;;;;6.27;3.07;;;;;;;5.56;100.00;99676.09;5010405;28;20205;-75
2023/04/15 06:45:17;;;;;;;5.50;3.43;;;;;;;5.87;99.98;99675.00;5006694;28;20276;-74
2023/04/15 06:47:43;;;;;;;6.33;3.20;;;;;;;6.14;98.35;99683.47;5009099;28;20586;-74
2023/04/15 06:50:10;;;;;;;6.23;3.50;;;;;;;6.23;95.94;99685.41;5011565;28;20201;-75
2023/04/15 06:52:36;;;;;;;7.33;3.20;;;;;;;6.25;96.97;99681.94;5010254;28;20207;-74
2023/04/15 06:55:04;;;;;;;6.00;3.37;;;;;;;6.73;95.67;99680.16;5005374;28;20607;-74
2023/04/15 06:57:30;;;;;;;5.60;3.00;;;;;;;7.32;93.31;99675.88;5009317;28;20561;-76
2023/04/15 06:59:59;;;;;;;4.63;3.00;;;;;;;8.07;90.30;99680.41;5007203;28;20211;-74
2023/04/15 07:02:26;;;;;;;6.93;3.00;;;;;;;8.71;86.59;99674.94;5006704;28;20250;-74
2023/04/15 07:04:53;;;;;;;5.77;2.80;;;;;;;9.51;79.63;99673.81;4993543;28;20284;-74
2023/04/15 07:07:19;;;;;;;5.63;2.90;;;;;;;10.59;74.25;99671.63;5012166;28;20652;-75
2023/04/15 07:09:46;;;;;;;6.20;3.10;;;;;;;10.92;72.77;99669.03;5006279;28;20205;-75
2023/04/15 07:12:12;;;;;;;5.87;3.17;;;;;;;11.31;70.17;99661.94;5013188;28;20686;-76
2023/04/15 07:14:39;;;;;;;6.70;2.97;;;;;;;12.58;66.00;99665.00;4992016;28;20306;-74
2023/04/15 07:17:05;;;;;;;4.07;2.93;;;;;;;13.09;62.70;99660.19;4992962;28;20586;-74
2023/04/15 07:19:32;;;;;;;5.83;3.00;;;;;;;13.55;61.44;99657.13;4994117;28;20663;-74
2023/04/15 07:21:58;;;;;;;4.83;2.80;;;;;;;13.40;61.03;99663.50;5010439;28;20208;-75
2023/04/15 07:24:25;;;;;;;4.90;3.07;;;;;;;13.41;58.53;99663.50;5016610;28;20198;-74
2023/04/15 07:26:53;;;;;;;6.00;3.10;;;;;;;13.72;56.86;99657.84;5013320;28;20281;-75
2023/04/15 07:29:20;;;;;;;8.80;3.00;;;;;;;14.15;56.24;99665.34;5009673;28;20285;-75
2023/04/15 07:31:46;;;;;;;4.87;2.83;;;;;;;14.80;54.54;99672.41;5003820;28;20207;-74
2023/04/15 07:34:13;;;;;;;4.50;2.97;;;;;;;15.26;52.42;99675.25;5007852;28;20250;-74
2023/04/15 07:36:40;;;;;;;5.80;3.00;;;;;;;15.11;52.26;99669.28;5004871;28;20279;-75
2023/04/15 07:39:06;;;;;;;6.20;3.00;;;;;;;14.66;52.07;99675.28;5010937;28;20255;-75
2023/04/15 07:41:33;;;;;;;5.90;3.10;;;;;;;14.19;52.91;99677.69;4998778;28;20196;-76
2023/04/15 07:43:59;;;;;;;10.20;3.50;;;;;;;12.84;56.20;99683.44;5004940;28;20720;-73
2023/04/15 07:46:28;;;;;;;11.30;4.17;;;;;;;12.58;58.06;99694.22;5003280;28;20222;-73
2023/04/15 07:48:55;;;;;;;10.50;4.23;;;;;;;12.96;58.01;99685.13;5004535;28;20378;-72
2023/04/15 07:51:21;;;;;;;9.23;4.10;;;;;;;13.13;59.21;99680.53;5008101;28;20519;-73
2023/04/15 07:53:49;;;;;;;10.60;4.60;;;;;;;13.45;58.13;99685.63;4994883;28;20777;-75
2023/04/15 07:56:15;;;;;;;6.90;3.97;;;;;;;13.23;58.84;99686.72;5009538;28;20308;-77
2023/04/15 07:58:42;;;;;;;8.03;3.83;;;;;;;12.67;60.23;99690.63;5009575;28;20681;-76
2023/04/15 08:01:08;;;;;;;6.27;3.57;;;;;;;12.96;61.09;99686.00;4992469;28;20202;-74
2023/04/15 08:03:35;;;;;;;5.20;3.20;;;;;;;12.98;61.39;99689.53;5007757;28;20198;-76
2023/04/15 08:06:02;;;;;;;7.37;4.00;;;;;;;13.17;60.92;99683.19;5004321;28;20278;-76
2023/04/15 08:08:28;;;;;;;7.17;3.67;;;;;;;13.26;61.31;99679.59;5006066;28;20240;-75
2023/04/15 08:10:54;;;;;;;5.33;3.33;;;;;;;13.36;60.43;99680.38;5007210;28;20200;-76
2023/04/15 08:13:21;;;;;;;7.27;4.10;;;;;;;13.30;60.12;99677.78;5005890;28;20219;-76
2023/04/15 08:16:13;;;;;;;6.67;3.70;;;;;;;13.39;60.09;99680.34;5005076;28;20224;-76
2023/04/15 08:18:40;;;;;;;6.10;4.13;;;;;;;13.35;60.09;99678.63;5007185;28;20211;-75
2023/04/15 08:21:06;;;;;;;7.93;3.83;;;;;;;13.20;60.38;99684.06;5007456;28;20239;-76
2023/04/15 08:23:33;;;;;;;6.97;4.43;;;;;;;13.09;61.43;99687.66;5006520;28;20240;-76
2023/04/15 08:25:59;;;;;;;7.67;4.10;;;;;;;13.18;61.07;99684.06;5006489;28;20682;-76
2023/04/15 08:28:26;;;;;;;6.87;4.00;;;;;;;13.36;60.41;99683.06;5007011;28;20243;-75
2023/04/15 08:30:52;;;;;;;9.13;4.23;;;;;;;13.51;60.91;99690.00;4986638;28;20474;-74
2023/04/15 08:33:18;;;;;;;6.63;4.60;;;;;;;13.74;60.24;99680.88;5004316;28;20288;-75
2023/04/15 08:35:45;;;;;;;7.70;4.50;;;;;;;14.11;59.18;99683.13;5004842;28;20253;-77
2023/04/15 08:38:12;;;;;;;7.83;4.50;;;;;;;14.45;57.78;99680.06;5006763;28;20207;-79
2023/04/15 08:40:41;;;;;;;7.53;5.00;;;;;;;14.65;56.17;99686.88;5007360;28;20200;-83
2023/04/15 08:43:22;;;;;;;6.30;4.50;;;;;;;14.79;56.21;99688.44;5003066;28;20711;-85
2023/04/15 08:45:50;;;;;;;6.83;4.40;;;;;;;15.13;55.03;99686.13;4988998;28;20216;-83
2023/04/15 08:48:17;;;;;;;6.77;4.30;;;;;;;15.33;53.88;99682.22;5003730;28;20213;-83
2023/04/15 08:50:46;;;;;;;7.57;4.43;;;;;;;15.59;51.65;99692.47;5003797;28;20192;-80
2023/04/15 08:53:14;;;;;;;5.90;3.77;;;;;;;15.78;51.47;99685.00;4999160;28;20624;-78
2023/04/15 08:55:46;;;;;;;7.80;3.97;;;;;;;16.07;49.03;99684.44;4999835;28;20705;-75
2023/04/15 08:58:13;;;;;;;7.20;4.47;;;;;;;16.37;48.75;99690.91;4992582;28;20204;-76
2023/04/15 09:00:40;;;;;;;5.43;2.70;;;;;;;16.37;41.76;99677.56;4994928;28;20200;-76
2023/04/15 09:03:08;;;;;;;4.30;2.30;;;;;;;16.43;39.14;99687.25;5009224;28;20220;-74
2023/04/15 09:05:36;;;;;;;4.17;2.23;;;;;;;15.99;38.15;99681.03;5009989;28;20212;-74
2023/04/15 09:08:03;;;;;;;2.33;1.60;;;;;;;15.70;38.01;99683.41;5010718;28;20663;-76
2023/04/15 09:10:30;;;;;;;3.30;1.50;;;;;;;16.01;37.38;99687.25;5007986;28;20203;-74
2023/04/15 09:12:57;;;;;;;3.10;1.50;;;;;;;15.97;36.84;99693.53;5000896;28;20240;-75
2023/04/15 09:15:26;;;;;;;5.73;2.03;;;;;;;15.98;36.24;99685.47;5004140;28;20256;-73
2023/04/15 09:17:52;;;;;;;2.47;1.67;;;;;;;16.26;35.63;99693.84;4985291;28;20615;-75
2023/04/15 09:20:19;;;;;;;1.90;1.50;;;;;;;16.33;35.32;99712.41;5001674;28;20201;-73
2023/04/15 09:22:47;;;;;;;2.07;1.50;;;;;;;15.88;34.18;99702.59;5007005;28;20232;-75
2023/04/15 09:25:13;;;;;;;2.20;1.20;;;;;;;16.09;33.49;99701.31;5008236;28;20251;-74
2023/04/15 09:28:00;;;;;;;2.47;1.40;;;;;;;16.41;33.73;99707.78;5001893;28;20236;-74
2023/04/15 09:30:28;;;;;;;2.67;1.40;;;;;;;16.16;34.37;99708.28;5008881;28;20195;-74
2023/04/15 09:33:01;;;;;;;1.97;1.20;;;;;;;15.94;33.84;99712.28;5002829;28;20196;-75
2023/04/15 09:35:27;;;;;;;2.57;1.50;;;;;;;15.82;33.70;99715.19;5004980;28;20227;-75
2023/04/15 09:38:03;;;;;;;1.87;1.20;;;;;;;15.94;33.20;99718.50;5001009;28;21026;-76
2023/04/15 09:40:40;;;;;;;1.97;1.30;;;;;;;15.93;33.31;99716.75;4981299;28;20196;-76
2023/04/15 09:43:11;;;;;;;1.37;1.17;;;;;;;16.07;33.87;99727.19;5000080;28;20204;-75
2023/04/15 09:45:45;;;;;;;1.30;1.00;;;;;;;16.25;33.53;99718.78;4997589;28;20213;-77
2023/04/15 09:48:19;;;;;;;1.33;1.00;;;;;;;16.25;33.09;99728.59;5002897;28;20656;-76
2023/04/15 09:50:47;;;;;;;1.50;1.23;;;;;;;16.20;31.65;99728.69;5010313;28;20644;-74
2023/04/15 09:53:19;;;;;;;1.90;1.20;;;;;;;16.38;31.64;99715.84;5016915;28;20204;-75
2023/04/15 09:55:50;;;;;;;1.63;1.30;;;;;;;16.69;31.85;99724.13;5010223;28;20381;-71
2023/04/15 09:58:24;;;;;;;3.50;1.40;;;;;;;16.58;32.27;99729.69;5009799;28;20200;-71
2023/04/15 10:00:52;;;;;;;3.90;1.30;;;;;;;16.69;31.89;99732.16;5002261;28;20198;-71
2023/04/15 10:03:21;;;;;;;4.57;1.50;;;;;;;16.31;33.05;99720.44;4985338;28;20211;-70
2023/04/15 10:05:50;;;;;;;2.83;1.40;;;;;;;16.08;34.54;99726.28;5013944;28;20219;-71
2023/04/15 10:08:18;;;;;;;2.10;1.37;;;;;;;16.01;35.90;99729.97;5018994;28;20250;-71
2023/04/15 10:10:46;;;;;;;3.87;1.50;;;;;;;16.18;34.52;99738.53;5001648;28;20641;-73
2023/04/15 10:13:18;;;;;;;2.90;1.40;;;;;;;16.01;34.83;99727.31;4982365;28;20240;-74
2023/04/15 10:15:50;;;;;;;3.63;1.57;;;;;;;15.88;35.20;99737.31;4997620;28;20231;-71
2023/04/15 10:18:18;;;;;;;2.80;1.60;;;;;;;15.49;36.27;99740.66;5000491;28;20270;-71
2023/04/15 10:20:45;;;;;;;3.53;1.60;;;;;;;15.71;35.27;99744.78;5011014;28;20222;-72
2023/04/15 10:23:12;;;;;;;1.70;1.57;;;;;;;15.71;33.62;99746.56;4990397;28;20212;-70
2023/04/15 10:25:39;;;;;;;2.73;1.50;;;;;;;15.71;34.65;99743.88;5015071;28;20622;-73
2023/04/15 10:28:06;;;;;;;4.33;1.67;;;;;;;15.75;34.02;99762.50;5005898;28;20215;-72
2023/04/15 10:30:33;;;;;;;2.20;1.60;;;;;;;15.78;35.06;99762.44;4993448;28;20295;-68
2023/04/15 10:33:01;;;;;;;2.83;1.60;;;;;;;15.59;34.83;99751.19;5008563;28;20351;-70
2023/04/15 10:35:29;;;;;;;2.53;1.50;;;;;;;15.78;34.58;99753.53;5008288;28;20779;-71
2023/04/15 10:37:56;;;;;;;2.50;1.30;;;;;;;15.94;33.45;99757.69;5008503;28;20204;-70
2023/04/15 10:40:28;;;;;;;1.60;1.30;;;;;;;16.08;33.61;99749.44;4999986;28;20199;-71
2023/04/15 10:42:55;;;;;;;3.20;1.50;;;;;;;16.02;33.24;99760.25;5001452;28;20213;-69
2023/04/15 10:45:26;;;;;;;2.53;1.60;;;;;;;15.87;32.93;99770.28;4999183;28;20247;-72
2023/04/15 10:47:56;;;;;;;3.00;1.53;;;;;;;15.79;33.65;99772.22;4997322;28;20203;-70
2023/04/15 10:50:28;;;;;;;3.00;1.30;;;;;;;15.99;33.60;99778.06;4998429;28;20215;-69
2023/04/15 10:52:55;;;;;;;1.43;1.20;;;;;;;16.19;32.75;99772.34;5003916;28;20239;-71
2023/04/15 10:55:24;;;;;;;2.03;1.50;;;;;;;15.84;32.38;99780.13;5001780;28;20270;-70
2023/04/15 10:57:53;;;;;;;3.67;1.43;;;;;;;15.37;33.03;99789.78;5005685;28;20228;-70
2023/04/15 11:00:24;;;;;;;1.83;1.40;;;;;;;15.28;32.68;99779.28;5003368;28;20235;-70
2023/04/15 11:02:55;;;;;;;3.10;1.50;;;;;;;15.28;34.39;99790.81;5002829;28;20741;-69
2023/04/15 11:05:40;;;;;;;3.60;1.60;;;;;;;15.31;34.77;99788.09;5001508;28;20229;-70
2023/04/15 11:08:08;;;;;;;2.87;1.43;;;;;;;15.60;34.80;99795.66;5003801;28;20247;-71
2023/04/15 11:10:34;;;;;;;2.57;1.53;;;;;;;15.83;34.57;99792.59;5004708;28;20205;-71
2023/04/15 11:13:14;;;;;;;3.13;1.73;;;;;;;15.78;33.69;99796.28;5005240;28;20219;-70
2023/04/15 11:15:45;;;;;;;1.80;1.40;;;;;;;15.95;33.75;99811.06;5000379;28;20719;-70
2023/04/15 11:18:16;;;;;;;1.33;1.00;;;;;;;15.69;32.78;99788.41;5002986;28;20239;-72
2023/04/15 11:20:47;;;;;;;2.80;1.60;;;;;;;16.09;32.60;99799.28;5001016;28;20211;-71
2023/04/15 11:23:14;;;;;;;2.97;1.07;;;;;;;16.41;32.39;99801.31;5003133;28;20200;-71
2023/04/15 11:25:42;;;;;;;1.77;1.00;;;;;;;16.51;32.19;99789.56;5004533;28;20248;-71
2023/04/15 11:28:10;;;;;;;2.50;1.10;;;;;;;16.53;32.72;99795.75;5001320;28;20220;-73
2023/04/15 11:30:38;;;;;;;2.03;1.30;;;;;;;15.71;33.93;99791.94;5007442;28;20207;-73
2023/04/15 11:33:10;;;;;;;0.90;0.80;;;;;;;15.35;35.17;99803.16;5005199;28;20192;-71
2023/04/15 11:35:39;;;;;;;2.40;1.13;;;;;;;15.26;36.16;99805.97;4989793;28;20224;-72